sensor_id;sensor_type;location;lat;lon;timestamp;P1;durP1;ratioP1;P2;durP2;ratioP2
15381;SDS011;7789;51.364;12.358;2022-11-15T00:02:14;11.90;;;8.87;;
15381;SDS011;7789;51.364;12.358;2022-11-15T00:07:56;10.33;;;8.33;;
15381;SDS011;7789;51.364;12.358;2022-11-15T00:13:41;10.63;;;9.10;;
15381;SDS011;7789;51.364;12.358;2022-11-15T00:19:08;11.50;;;9.20;;
15381;SDS011;7789;51.364;12.358;2022-11-15T00:24:58;10.37;;;8.17;;
15381;SDS011;7789;51.364;12.358;2022-11-15T00:36:25;9.60;;;8.00;;
15381;SDS011;7789;51.364;12.358;2022-11-15T00:42:04;10.30;;;8.30;;
15381;SDS011;7789;51.364;12.358;2022-11-15T00:47:45;9.20;;;7.60;;
15381;SDS011;7789;51.364;12.358;2022-11-15T00:53:15;10.53;;;8.77;;
15381;SDS011;7789;51.364;12.358;2022-11-15T00:58:40;9.70;;;7.93;;
15381;SDS011;7789;51.364;12.358;2022-11-15T01:04:10;9.23;;;7.90;;
15381;SDS011;7789;51.364;12.358;2022-11-15T01:09:34;11.37;;;8.50;;
15381;SDS011;7789;51.364;12.358;2022-11-15T01:15:03;11.83;;;9.10;;
15381;SDS011;7789;51.364;12.358;2022-11-15T01:20:32;9.67;;;7.90;;
15381;SDS011;7789;51.364;12.358;2022-11-15T01:25:59;9.87;;;7.33;;
15381;SDS011;7789;51.364;12.358;2022-11-15T01:31:40;9.83;;;8.10;;
15381;SDS011;7789;51.364;12.358;2022-11-15T01:37:32;9.70;;;7.93;;
15381;SDS011;7789;51.364;12.358;2022-11-15T01:48:54;10.17;;;7.47;;
15381;SDS011;7789;51.364;12.358;2022-11-15T01:54:26;9.77;;;7.40;;
15381;SDS011;7789;51.364;12.358;2022-11-15T01:59:53;9.30;;;7.67;;
15381;SDS011;7789;51.364;12.358;2022-11-15T02:05:32;8.80;;;7.20;;
15381;SDS011;7789;51.364;12.358;2022-11-15T02:11:19;8.73;;;7.30;;
15381;SDS011;7789;51.364;12.358;2022-11-15T02:16:55;8.33;;;7.23;;
15381;SDS011;7789;51.364;12.358;2022-11-15T02:22:45;8.80;;;7.57;;
15381;SDS011;7789;51.364;12.358;2022-11-15T02:34:45;9.13;;;7.30;;
15381;SDS011;7789;51.364;12.358;2022-11-15T02:40:21;9.77;;;8.07;;
15381;SDS011;7789;51.364;12.358;2022-11-15T02:46:03;8.80;;;7.50;;
15381;SDS011;7789;51.364;12.358;2022-11-15T02:51:54;10.57;;;7.93;;
15381;SDS011;7789;51.364;12.358;2022-11-15T02:57:29;9.47;;;7.10;;
15381;SDS011;7789;51.364;12.358;2022-11-15T03:03:13;8.00;;;6.80;;
15381;SDS011;7789;51.364;12.358;2022-11-15T03:09:02;8.43;;;7.10;;
15381;SDS011;7789;51.364;12.358;2022-11-15T03:14:32;7.73;;;6.53;;
15381;SDS011;7789;51.364;12.358;2022-11-15T03:20:03;8.87;;;7.07;;
15381;SDS011;7789;51.364;12.358;2022-11-15T03:25:33;7.87;;;6.70;;
15381;SDS011;7789;51.364;12.358;2022-11-15T03:31:07;7.97;;;6.70;;
15381;SDS011;7789;51.364;12.358;2022-11-15T03:36:48;10.27;;;6.60;;
15381;SDS011;7789;51.364;12.358;2022-11-15T03:42:20;10.77;;;7.30;;
15381;SDS011;7789;51.364;12.358;2022-11-15T03:47:54;9.37;;;6.70;;
15381;SDS011;7789;51.364;12.358;2022-11-15T03:53:30;8.40;;;6.73;;
15381;SDS011;7789;51.364;12.358;2022-11-15T04:04:46;8.87;;;6.50;;
15381;SDS011;7789;51.364;12.358;2022-11-15T04:10:17;8.00;;;5.90;;
15381;SDS011;7789;51.364;12.358;2022-11-15T04:15:45;10.97;;;6.47;;
15381;SDS011;7789;51.364;12.358;2022-11-15T04:21:16;8.37;;;6.20;;
15381;SDS011;7789;51.364;12.358;2022-11-15T04:26:56;6.43;;;5.67;;
15381;SDS011;7789;51.364;12.358;2022-11-15T04:32:29;7.50;;;6.10;;
15381;SDS011;7789;51.364;12.358;2022-11-15T04:37:55;7.83;;;6.17;;
15381;SDS011;7789;51.364;12.358;2022-11-15T04:43:33;8.33;;;6.17;;
15381;SDS011;7789;51.364;12.358;2022-11-15T04:49:00;10.27;;;6.60;;
15381;SDS011;7789;51.364;12.358;2022-11-15T04:54:25;10.40;;;6.33;;
15381;SDS011;7789;51.364;12.358;2022-11-15T04:59:51;8.23;;;6.77;;
15381;SDS011;7789;51.364;12.358;2022-11-15T05:05:23;9.37;;;6.47;;
15381;SDS011;7789;51.364;12.358;2022-11-15T05:11:17;8.47;;;6.77;;
15381;SDS011;7789;51.364;12.358;2022-11-15T05:16:51;8.40;;;6.90;;
15381;SDS011;7789;51.364;12.358;2022-11-15T05:22:26;8.83;;;6.83;;
15381;SDS011;7789;51.364;12.358;2022-11-15T05:27:52;7.70;;;6.57;;
15381;SDS011;7789;51.364;12.358;2022-11-15T05:33:25;7.40;;;6.10;;
15381;SDS011;7789;51.364;12.358;2022-11-15T05:38:59;9.43;;;6.77;;
15381;SDS011;7789;51.364;12.358;2022-11-15T05:44:30;8.73;;;7.03;;
15381;SDS011;7789;51.364;12.358;2022-11-15T05:50:06;7.97;;;6.83;;
15381;SDS011;7789;51.364;12.358;2022-11-15T05:55:38;10.30;;;7.10;;
15381;SDS011;7789;51.364;12.358;2022-11-15T06:01:02;11.63;;;6.90;;
15381;SDS011;7789;51.364;12.358;2022-11-15T06:06:31;7.27;;;6.27;;
15381;SDS011;7789;51.364;12.358;2022-11-15T06:11:56;9.10;;;6.63;;
15381;SDS011;7789;51.364;12.358;2022-11-15T06:17:19;8.23;;;6.77;;
15381;SDS011;7789;51.364;12.358;2022-11-15T06:22:45;8.07;;;6.67;;
15381;SDS011;7789;51.364;12.358;2022-11-15T06:28:32;10.10;;;7.30;;
15381;SDS011;7789;51.364;12.358;2022-11-15T06:34:02;7.40;;;6.60;;
15381;SDS011;7789;51.364;12.358;2022-11-15T06:39:43;8.10;;;6.33;;
15381;SDS011;7789;51.364;12.358;2022-11-15T06:45:10;10.47;;;7.10;;
15381;SDS011;7789;51.364;12.358;2022-11-15T06:50:42;9.23;;;6.53;;
15381;SDS011;7789;51.364;12.358;2022-11-15T06:56:09;8.17;;;6.87;;
15381;SDS011;7789;51.364;12.358;2022-11-15T07:01:48;8.10;;;7.03;;
15381;SDS011;7789;51.364;12.358;2022-11-15T07:07:19;7.67;;;6.33;;
15381;SDS011;7789;51.364;12.358;2022-11-15T07:13:23;8.17;;;6.57;;
15381;SDS011;7789;51.364;12.358;2022-11-15T07:19:04;8.87;;;6.53;;
15381;SDS011;7789;51.364;12.358;2022-11-15T07:24:34;8.57;;;6.23;;
15381;SDS011;7789;51.364;12.358;2022-11-15T07:30:01;12.40;;;6.37;;
15381;SDS011;7789;51.364;12.358;2022-11-15T07:35:36;8.47;;;6.37;;
15381;SDS011;7789;51.364;12.358;2022-11-15T07:41:16;10.33;;;6.47;;
15381;SDS011;7789;51.364;12.358;2022-11-15T07:47:01;8.90;;;6.70;;
15381;SDS011;7789;51.364;12.358;2022-11-15T07:52:32;6.90;;;5.37;;
15381;SDS011;7789;51.364;12.358;2022-11-15T07:58:12;6.13;;;5.53;;
15381;SDS011;7789;51.364;12.358;2022-11-15T08:03:42;7.13;;;6.00;;
15381;SDS011;7789;51.364;12.358;2022-11-15T08:09:18;7.07;;;5.07;;
15381;SDS011;7789;51.364;12.358;2022-11-15T08:14:51;7.73;;;5.53;;
15381;SDS011;7789;51.364;12.358;2022-11-15T08:20:20;6.87;;;5.33;;
15381;SDS011;7789;51.364;12.358;2022-11-15T08:26:06;10.47;;;5.07;;
15381;SDS011;7789;51.364;12.358;2022-11-15T08:31:32;6.33;;;4.80;;
15381;SDS011;7789;51.364;12.358;2022-11-15T08:37:04;5.30;;;4.33;;
15381;SDS011;7789;51.364;12.358;2022-11-15T08:42:35;4.77;;;4.23;;
15381;SDS011;7789;51.364;12.358;2022-11-15T08:48:00;4.90;;;4.37;;
15381;SDS011;7789;51.364;12.358;2022-11-15T08:53:26;4.67;;;4.17;;
15381;SDS011;7789;51.364;12.358;2022-11-15T08:58:56;7.17;;;4.70;;
15381;SDS011;7789;51.364;12.358;2022-11-15T09:04:21;8.90;;;4.83;;
15381;SDS011;7789;51.364;12.358;2022-11-15T09:09:46;6.03;;;4.53;;
15381;SDS011;7789;51.364;12.358;2022-11-15T09:15:15;7.07;;;3.90;;
15381;SDS011;7789;51.364;12.358;2022-11-15T09:20:44;5.55;;;4.10;;
15381;SDS011;7789;51.364;12.358;2022-11-15T09:26:09;4.78;;;4.15;;
15381;SDS011;7789;51.364;12.358;2022-11-15T09:32:18;7.72;;;3.75;;
15381;SDS011;7789;51.364;12.358;2022-11-15T09:37:58;5.68;;;3.60;;
15381;SDS011;7789;51.364;12.358;2022-11-15T09:43:30;5.63;;;3.55;;
15381;SDS011;7789;51.364;12.358;2022-11-15T09:49:11;5.15;;;3.30;;
15381;SDS011;7789;51.364;12.358;2022-11-15T09:54:38;4.32;;;2.80;;
15381;SDS011;7789;51.364;12.358;2022-11-15T10:00:16;3.33;;;2.92;;
15381;SDS011;7789;51.364;12.358;2022-11-15T10:06:14;3.17;;;2.53;;
15381;SDS011;7789;51.364;12.358;2022-11-15T10:11:55;3.67;;;2.55;;
15381;SDS011;7789;51.364;12.358;2022-11-15T10:17:37;3.08;;;2.28;;
15381;SDS011;7789;51.364;12.358;2022-11-15T10:23:20;5.28;;;2.72;;
15381;SDS011;7789;51.364;12.358;2022-11-15T10:28:52;3.03;;;2.40;;
15381;SDS011;7789;51.364;12.358;2022-11-15T10:34:27;3.65;;;2.70;;
15381;SDS011;7789;51.364;12.358;2022-11-15T10:40:00;5.30;;;2.42;;
15381;SDS011;7789;51.364;12.358;2022-11-15T10:45:29;2.60;;;2.38;;
15381;SDS011;7789;51.364;12.358;2022-11-15T10:50:56;4.25;;;2.85;;
15381;SDS011;7789;51.364;12.358;2022-11-15T10:56:23;4.70;;;2.80;;
15381;SDS011;7789;51.364;12.358;2022-11-15T11:01:50;3.92;;;3.00;;
15381;SDS011;7789;51.364;12.358;2022-11-15T11:07:19;4.70;;;3.60;;
15381;SDS011;7789;51.364;12.358;2022-11-15T11:13:21;3.72;;;3.08;;
15381;SDS011;7789;51.364;12.358;2022-11-15T11:18:49;5.38;;;3.05;;
15381;SDS011;7789;51.364;12.358;2022-11-15T11:24:22;6.30;;;2.92;;
15381;SDS011;7789;51.364;12.358;2022-11-15T11:29:54;5.03;;;3.58;;
15381;SDS011;7789;51.364;12.358;2022-11-15T11:35:34;6.13;;;2.40;;
15381;SDS011;7789;51.364;12.358;2022-11-15T11:40:59;4.07;;;2.92;;
15381;SDS011;7789;51.364;12.358;2022-11-15T11:46:29;4.57;;;3.13;;
15381;SDS011;7789;51.364;12.358;2022-11-15T11:52:07;6.05;;;3.50;;
15381;SDS011;7789;51.364;12.358;2022-11-15T11:57:17;5.47;;;2.78;;
15381;SDS011;7789;51.364;12.358;2022-11-15T12:02:47;5.50;;;2.55;;
15381;SDS011;7789;51.364;12.358;2022-11-15T12:08:04;8.20;;;2.67;;
15381;SDS011;7789;51.364;12.358;2022-11-15T12:13:23;6.13;;;2.83;;
15381;SDS011;7789;51.364;12.358;2022-11-15T12:18:40;4.97;;;2.97;;
15381;SDS011;7789;51.364;12.358;2022-11-15T12:24:14;5.95;;;2.75;;
15381;SDS011;7789;51.364;12.358;2022-11-15T12:29:30;3.45;;;2.47;;
15381;SDS011;7789;51.364;12.358;2022-11-15T12:34:46;4.28;;;2.58;;
15381;SDS011;7789;51.364;12.358;2022-11-15T12:45:31;4.07;;;2.38;;
15381;SDS011;7789;51.364;12.358;2022-11-15T12:50:57;3.10;;;2.13;;
15381;SDS011;7789;51.364;12.358;2022-11-15T12:56:20;4.40;;;2.55;;
15381;SDS011;7789;51.364;12.358;2022-11-15T13:13:09;4.03;;;2.00;;
15381;SDS011;7789;51.364;12.358;2022-11-15T13:18:27;3.92;;;2.15;;
15381;SDS011;7789;51.364;12.358;2022-11-15T13:23:38;3.55;;;2.50;;
15381;SDS011;7789;51.364;12.358;2022-11-15T13:28:51;5.57;;;2.03;;
15381;SDS011;7789;51.364;12.358;2022-11-15T13:34:03;4.85;;;2.17;;
15381;SDS011;7789;51.364;12.358;2022-11-15T13:39:54;4.35;;;2.10;;
15381;SDS011;7789;51.364;12.358;2022-11-15T13:45:18;6.25;;;2.33;;
15381;SDS011;7789;51.364;12.358;2022-11-15T13:50:32;2.60;;;2.10;;
15381;SDS011;7789;51.364;12.358;2022-11-15T13:55:41;3.65;;;2.35;;
15381;SDS011;7789;51.364;12.358;2022-11-15T14:01:13;2.97;;;2.08;;
15381;SDS011;7789;51.364;12.358;2022-11-15T14:06:33;3.03;;;2.20;;
15381;SDS011;7789;51.364;12.358;2022-11-15T14:12:02;5.88;;;2.45;;
15381;SDS011;7789;51.364;12.358;2022-11-15T14:17:36;5.07;;;2.60;;
15381;SDS011;7789;51.364;12.358;2022-11-15T14:22:51;3.83;;;2.80;;
15381;SDS011;7789;51.364;12.358;2022-11-15T14:28:09;4.82;;;2.80;;
15381;SDS011;7789;51.364;12.358;2022-11-15T14:39:01;6.05;;;3.10;;
15381;SDS011;7789;51.364;12.358;2022-11-15T14:44:12;5.38;;;3.38;;
15381;SDS011;7789;51.364;12.358;2022-11-15T14:49:31;4.82;;;3.35;;
15381;SDS011;7789;51.364;12.358;2022-11-15T14:54:51;5.30;;;3.50;;
15381;SDS011;7789;51.364;12.358;2022-11-15T14:59:59;5.93;;;4.07;;
15381;SDS011;7789;51.364;12.358;2022-11-15T15:05:22;7.68;;;3.10;;
15381;SDS011;7789;51.364;12.358;2022-11-15T15:10:30;5.35;;;4.18;;
15381;SDS011;7789;51.364;12.358;2022-11-15T15:15:43;6.15;;;3.40;;
15381;SDS011;7789;51.364;12.358;2022-11-15T15:20:58;3.85;;;2.85;;
15381;SDS011;7789;51.364;12.358;2022-11-15T15:26:23;4.82;;;3.05;;
15381;SDS011;7789;51.364;12.358;2022-11-15T15:31:28;5.53;;;3.35;;
15381;SDS011;7789;51.364;12.358;2022-11-15T15:37:08;6.13;;;3.33;;
15381;SDS011;7789;51.364;12.358;2022-11-15T15:42:26;5.80;;;3.80;;
15381;SDS011;7789;51.364;12.358;2022-11-15T15:47:34;5.90;;;3.20;;
15381;SDS011;7789;51.364;12.358;2022-11-15T15:53:05;8.68;;;4.32;;
15381;SDS011;7789;51.364;12.358;2022-11-15T15:58:28;6.30;;;3.70;;
15381;SDS011;7789;51.364;12.358;2022-11-15T16:03:34;9.27;;;4.50;;
15381;SDS011;7789;51.364;12.358;2022-11-15T16:08:42;7.05;;;4.30;;
15381;SDS011;7789;51.364;12.358;2022-11-15T16:14:11;7.20;;;4.00;;
15381;SDS011;7789;51.364;12.358;2022-11-15T16:19:22;8.35;;;3.80;;
15381;SDS011;7789;51.364;12.358;2022-11-15T16:24:33;5.22;;;3.95;;
15381;SDS011;7789;51.364;12.358;2022-11-15T16:29:39;10.70;;;4.63;;
15381;SDS011;7789;51.364;12.358;2022-11-15T16:34:43;7.97;;;4.50;;
15381;SDS011;7789;51.364;12.358;2022-11-15T16:39:51;7.50;;;5.05;;
15381;SDS011;7789;51.364;12.358;2022-11-15T16:45:01;9.02;;;5.93;;
15381;SDS011;7789;51.364;12.358;2022-11-15T16:50:05;10.75;;;5.50;;
15381;SDS011;7789;51.364;12.358;2022-11-15T16:55:11;8.77;;;6.30;;
15381;SDS011;7789;51.364;12.358;2022-11-15T17:00:16;12.25;;;6.20;;
15381;SDS011;7789;51.364;12.358;2022-11-15T17:05:22;8.18;;;6.70;;
15381;SDS011;7789;51.364;12.358;2022-11-15T17:10:29;10.13;;;7.60;;
15381;SDS011;7789;51.364;12.358;2022-11-15T17:15:33;13.60;;;9.50;;
15381;SDS011;7789;51.364;12.358;2022-11-15T17:20:36;11.50;;;8.88;;
15381;SDS011;7789;51.364;12.358;2022-11-15T17:25:41;17.58;;;10.60;;
15381;SDS011;7789;51.364;12.358;2022-11-15T17:30:44;14.43;;;9.77;;
15381;SDS011;7789;51.364;12.358;2022-11-15T17:35:53;14.18;;;11.25;;
15381;SDS011;7789;51.364;12.358;2022-11-15T17:41:02;14.80;;;12.07;;
15381;SDS011;7789;51.364;12.358;2022-11-15T17:46:07;17.27;;;13.13;;
15381;SDS011;7789;51.364;12.358;2022-11-15T17:51:13;18.58;;;13.38;;
15381;SDS011;7789;51.364;12.358;2022-11-15T17:56:21;20.97;;;14.00;;
15381;SDS011;7789;51.364;12.358;2022-11-15T18:01:30;20.57;;;14.93;;
15381;SDS011;7789;51.364;12.358;2022-11-15T18:06:42;23.47;;;17.43;;
15381;SDS011;7789;51.364;12.358;2022-11-15T18:11:55;21.97;;;16.30;;
15381;SDS011;7789;51.364;12.358;2022-11-15T18:17:11;24.70;;;18.57;;
15381;SDS011;7789;51.364;12.358;2022-11-15T18:22:24;21.60;;;15.57;;
15381;SDS011;7789;51.364;12.358;2022-11-15T18:38:44;22.30;;;14.63;;
15381;SDS011;7789;51.364;12.358;2022-11-15T18:43:57;21.60;;;15.30;;
15381;SDS011;7789;51.364;12.358;2022-11-15T18:49:10;19.70;;;15.70;;
15381;SDS011;7789;51.364;12.358;2022-11-15T18:54:23;18.50;;;14.90;;
15381;SDS011;7789;51.364;12.358;2022-11-15T18:59:52;19.03;;;14.30;;
15381;SDS011;7789;51.364;12.358;2022-11-15T19:05:17;20.80;;;15.40;;
15381;SDS011;7789;51.364;12.358;2022-11-15T19:10:29;24.83;;;15.90;;
15381;SDS011;7789;51.364;12.358;2022-11-15T19:15:37;21.17;;;14.80;;
15381;SDS011;7789;51.364;12.358;2022-11-15T19:20:48;22.17;;;15.57;;
15381;SDS011;7789;51.364;12.358;2022-11-15T19:25:55;19.03;;;14.43;;
15381;SDS011;7789;51.364;12.358;2022-11-15T19:31:05;22.23;;;14.20;;
15381;SDS011;7789;51.364;12.358;2022-11-15T19:36:14;18.53;;;13.63;;
15381;SDS011;7789;51.364;12.358;2022-11-15T19:41:28;21.67;;;14.60;;
15381;SDS011;7789;51.364;12.358;2022-11-15T19:46:33;19.73;;;14.60;;
15381;SDS011;7789;51.364;12.358;2022-11-15T19:57:50;18.93;;;13.67;;
15381;SDS011;7789;51.364;12.358;2022-11-15T20:03:13;19.70;;;12.80;;
15381;SDS011;7789;51.364;12.358;2022-11-15T20:08:46;18.53;;;13.87;;
15381;SDS011;7789;51.364;12.358;2022-11-15T20:14:13;19.10;;;14.07;;
15381;SDS011;7789;51.364;12.358;2022-11-15T20:19:24;18.03;;;13.10;;
15381;SDS011;7789;51.364;12.358;2022-11-15T20:24:30;19.10;;;13.00;;
15381;SDS011;7789;51.364;12.358;2022-11-15T20:29:53;16.43;;;12.50;;
15381;SDS011;7789;51.364;12.358;2022-11-15T20:35:04;19.23;;;12.60;;
15381;SDS011;7789;51.364;12.358;2022-11-15T20:45:44;17.03;;;13.23;;
15381;SDS011;7789;51.364;12.358;2022-11-15T20:50:58;18.97;;;12.73;;
15381;SDS011;7789;51.364;12.358;2022-11-15T20:56:11;17.87;;;12.70;;
15381;SDS011;7789;51.364;12.358;2022-11-15T21:01:26;17.20;;;12.40;;
15381;SDS011;7789;51.364;12.358;2022-11-15T21:06:58;15.50;;;11.60;;
15381;SDS011;7789;51.364;12.358;2022-11-15T21:12:11;17.93;;;11.90;;
15381;SDS011;7789;51.364;12.358;2022-11-15T21:17:35;17.07;;;11.63;;
15381;SDS011;7789;51.364;12.358;2022-11-15T21:23:00;15.70;;;11.10;;
15381;SDS011;7789;51.364;12.358;2022-11-15T21:28:39;16.40;;;12.20;;
15381;SDS011;7789;51.364;12.358;2022-11-15T21:33:51;17.10;;;11.63;;
15381;SDS011;7789;51.364;12.358;2022-11-15T21:39:13;16.47;;;11.63;;
15381;SDS011;7789;51.364;12.358;2022-11-15T21:44:24;15.90;;;11.37;;
15381;SDS011;7789;51.364;12.358;2022-11-15T21:49:40;14.73;;;10.93;;
15381;SDS011;7789;51.364;12.358;2022-11-15T21:54:46;15.33;;;11.00;;
15381;SDS011;7789;51.364;12.358;2022-11-15T21:59:52;16.13;;;9.97;;
15381;SDS011;7789;51.364;12.358;2022-11-15T22:05:14;15.30;;;9.80;;
15381;SDS011;7789;51.364;12.358;2022-11-15T22:10:19;13.33;;;8.97;;
15381;SDS011;7789;51.364;12.358;2022-11-15T22:15:35;13.47;;;9.23;;
15381;SDS011;7789;51.364;12.358;2022-11-15T22:20:44;12.20;;;9.13;;
15381;SDS011;7789;51.364;12.358;2022-11-15T22:26:11;11.53;;;8.67;;
15381;SDS011;7789;51.364;12.358;2022-11-15T22:31:31;11.83;;;8.83;;
15381;SDS011;7789;51.364;12.358;2022-11-15T22:36:47;11.47;;;8.60;;
15381;SDS011;7789;51.364;12.358;2022-11-15T22:42:14;13.30;;;8.83;;
15381;SDS011;7789;51.364;12.358;2022-11-15T22:47:37;14.33;;;9.33;;
15381;SDS011;7789;51.364;12.358;2022-11-15T22:52:46;10.60;;;8.27;;
15381;SDS011;7789;51.364;12.358;2022-11-15T22:57:52;11.30;;;8.07;;
15381;SDS011;7789;51.364;12.358;2022-11-15T23:03:13;12.23;;;8.67;;
15381;SDS011;7789;51.364;12.358;2022-11-15T23:08:32;11.43;;;7.80;;
15381;SDS011;7789;51.364;12.358;2022-11-15T23:13:37;11.90;;;8.47;;
15381;SDS011;7789;51.364;12.358;2022-11-15T23:18:41;10.87;;;8.07;;
15381;SDS011;7789;51.364;12.358;2022-11-15T23:24:03;12.90;;;8.07;;
15381;SDS011;7789;51.364;12.358;2022-11-15T23:29:21;12.50;;;7.77;;
15381;SDS011;7789;51.364;12.358;2022-11-15T23:34:29;10.50;;;7.93;;
15381;SDS011;7789;51.364;12.358;2022-11-15T23:39:41;14.03;;;8.77;;
15381;SDS011;7789;51.364;12.358;2022-11-15T23:45:00;11.27;;;8.27;;
15381;SDS011;7789;51.364;12.358;2022-11-15T23:50:28;17.03;;;9.57;;
15381;SDS011;7789;51.364;12.358;2022-11-15T23:55:45;10.90;;;8.47;;
